Time;durP1;ratioP1;P1;durP2;ratioP2;P2;SDS_P1;SDS_P2;PMS_P1;PMS_P2;Temp;Humidity;BMP_temperature;BMP_pressure;BME280_temperature;BME280_humidity;BME280_pressure;Samples;Min_cycle;Max_cycle;Signal;HPM_P1;HPM_P2
2023/11/08 00:00:08;;;;;;;;;;;;;;;21.53;28.10;98098.91;5015822;28;1914;-74
2023/11/08 00:02:40;;;;;;;;;;;;;;;21.15;28.48;98090.88;5015914;28;866;-74
2023/11/08 00:05:05;;;;;;;;;;;;;;;20.92;28.93;98093.84;5015806;28;758;-74
2023/11/08 00:07:31;;;;;;;;;;;;;;;20.53;29.22;98084.97;5016901;28;830;-74
2023/11/08 00:09:57;;;;;;;;;;;;;;;20.62;29.05;98080.75;5015571;28;1646;-74
2023/11/08 00:12:24;;;;;;;;;;;;;;;20.62;29.34;98078.72;5016919;28;794;-74
2023/11/08 00:14:50;;;;;;;;;;;;;;;20.79;28.87;98080.38;5015657;28;759;-75
2023/11/08 00:17:16;;;;;;;;;;;;;;;20.49;29.47;98072.16;4999254;28;1073;-74
2023/11/08 00:19:41;;;;;;;;;;;;;;;20.62;29.18;98066.59;4999023;28;962;-74
2023/11/08 00:22:07;;;;;;;;;;;;;;;20.64;29.22;98062.13;5015758;28;1898;-74
2023/11/08 00:24:32;;;;;;;;;;;;;;;20.58;29.19;98069.53;5016809;28;874;-75
2023/11/08 00:26:58;;;;;;;;;;;;;;;20.46;29.38;98061.66;4982843;28;1121;-74
2023/11/08 00:29:23;;;;;;;;;;;;;;;20.62;29.29;98058.91;5015604;28;1182;-75
2023/11/08 00:31:53;;;;;;;;;;;;;;;20.57;29.03;98045.31;4999120;28;1072;-75
2023/11/08 00:34:19;;;;;;;;;;;;;;;20.95;28.69;98036.41;4998842;28;676;-74
2023/11/08 00:36:45;;;;;;;;;;;;;;;21.43;28.15;98034.84;5015459;28;1045;-74
2023/11/08 00:39:11;;;;;;;;;;;;;;;21.38;28.32;98030.50;5015763;28;731;-73
2023/11/08 00:41:36;;;;;;;;;;;;;;;21.50;28.09;98031.81;4999024;28;1973;-74
2023/11/08 00:44:03;;;;;;;;;;;;;;;21.00;28.49;98028.19;4998971;28;1080;-74
2023/11/08 00:46:28;;;;;;;;;;;;;;;21.08;28.58;98023.13;4975125;28;1120;-75
2023/11/08 00:48:54;;;;;;;;;;;;;;;20.95;28.63;98025.06;4974997;28;791;-74
2023/11/08 00:51:22;;;;;;;;;;;;;;;20.68;29.14;98028.94;4974991;28;815;-74
2023/11/08 00:53:47;;;;;;;;;;;;;;;20.50;29.33;98017.19;4959007;28;1115;-74
2023/11/08 00:56:13;;;;;;;;;;;;;;;20.46;29.71;98008.78;4975126;28;786;-74
2023/11/08 00:58:39;;;;;;;;;;;;;;;20.32;29.71;97997.78;4974934;28;913;-74
2023/11/08 01:01:05;;;;;;;;;;;;;;;20.59;29.57;98008.13;4975098;28;1973;-74
2023/11/08 01:03:32;;;;;;;;;;;;;;;20.55;29.35;98002.56;4976528;28;739;-74
2023/11/08 01:05:57;;;;;;;;;;;;;;;20.84;28.94;97996.25;4995054;28;1036;-75
2023/11/08 01:08:23;;;;;;;;;;;;;;;20.61;29.14;98000.78;4995379;28;1300;-74
2023/11/08 01:10:48;;;;;;;;;;;;;;;20.28;29.80;97989.38;4994906;28;1223;-74
2023/11/08 01:13:14;;;;;;;;;;;;;;;20.30;29.57;97984.06;4978879;28;1299;-74
2023/11/08 01:15:39;;;;;;;;;;;;;;;21.07;28.66;97993.25;4978639;28;1595;-75
2023/11/08 01:18:05;;;;;;;;;;;;;;;21.32;28.50;97982.13;5009279;28;1160;-75
2023/11/08 01:20:31;;;;;;;;;;;;;;;21.43;28.07;97969.75;5018580;28;1906;-75
2023/11/08 01:22:58;;;;;;;;;;;;;;;21.15;28.47;97960.72;5002464;28;1369;-74
2023/11/08 01:25:24;;;;;;;;;;;;;;;21.20;28.27;97965.06;5018651;28;830;-74
2023/11/08 01:27:49;;;;;;;;;;;;;;;20.58;29.19;97956.47;5018820;28;762;-75
2023/11/08 01:30:15;;;;;;;;;;;;;;;20.87;28.66;97958.59;5002123;28;1116;-74
2023/11/08 01:32:40;;;;;;;;;;;;;;;21.01;28.63;97949.75;5001969;28;1194;-74
2023/11/08 01:35:06;;;;;;;;;;;;;;;20.94;28.77;97956.41;5018466;28;743;-75
2023/11/08 01:37:33;;;;;;;;;;;;;;;20.53;29.18;97956.97;5002142;28;1411;-74
2023/11/08 01:39:58;;;;;;;;;;;;;;;20.79;29.00;97967.25;5001983;28;767;-75
2023/11/08 01:42:24;;;;;;;;;;;;;;;20.76;29.22;97956.81;5002273;28;1910;-74
2023/11/08 01:44:49;;;;;;;;;;;;;;;20.55;29.30;97948.84;5002137;28;1068;-74
2023/11/08 01:47:15;;;;;;;;;;;;;;;20.23;29.86;97952.38;5018231;28;853;-75
2023/11/08 01:49:40;;;;;;;;;;;;;;;21.10;28.75;97952.78;5001703;28;1471;-75
2023/11/08 01:52:06;;;;;;;;;;;;;;;21.30;28.41;97952.69;5017797;28;900;-74
2023/11/08 01:54:32;;;;;;;;;;;;;;;21.31;28.57;97935.28;4961649;28;1105;-74
2023/11/08 01:56:57;;;;;;;;;;;;;;;21.07;28.80;97931.00;4977776;28;1076;-74
2023/11/08 01:59:24;;;;;;;;;;;;;;;20.93;28.93;97931.38;4994085;28;1204;-74
2023/11/08 02:01:49;;;;;;;;;;;;;;;20.70;29.33;97935.97;4977606;28;1923;-76
2023/11/08 02:04:15;;;;;;;;;;;;;;;20.67;29.30;97924.72;4993933;28;1212;-75
2023/11/08 02:06:42;;;;;;;;;;;;;;;20.51;29.41;97917.81;4977750;28;1273;-74
2023/11/08 02:09:08;;;;;;;;;;;;;;;20.81;28.88;97922.34;4974079;28;1218;-74
2023/11/08 02:11:34;;;;;;;;;;;;;;;20.60;29.47;97913.59;4958237;29;784;-75
2023/11/08 02:14:01;;;;;;;;;;;;;;;20.27;29.79;97924.84;4941993;29;1479;-74
2023/11/08 02:16:29;;;;;;;;;;;;;;;20.17;30.18;97915.38;4958329;29;1089;-74
2023/11/08 02:18:56;;;;;;;;;;;;;;;21.00;28.80;97908.56;4973908;28;849;-74
2023/11/08 02:21:22;;;;;;;;;;;;;;;21.29;28.72;97902.94;4958235;29;1973;-74
2023/11/08 02:23:49;;;;;;;;;;;;;;;21.25;28.33;97893.78;4942365;29;783;-74
2023/11/08 02:26:15;;;;;;;;;;;;;;;20.83;29.18;97881.53;4981144;28;922;-74
2023/11/08 02:28:43;;;;;;;;;;;;;;;20.69;29.12;97889.16;4998400;28;1248;-75
2023/11/08 02:31:08;;;;;;;;;;;;;;;20.62;29.30;97877.19;4997563;28;767;-73
2023/11/08 02:33:34;;;;;;;;;;;;;;;20.32;29.69;97881.16;4981646;28;806;-74
2023/11/08 02:36:03;;;;;;;;;;;;;;;20.64;29.20;97891.72;4999286;28;754;-74
2023/11/08 02:38:28;;;;;;;;;;;;;;;20.76;29.08;97900.25;4997418;28;1032;-75
2023/11/08 02:40:54;;;;;;;;;;;;;;;20.39;29.65;97909.22;4998605;28;1899;-74
2023/11/08 02:43:20;;;;;;;;;;;;;;;20.85;28.83;97918.66;4998696;28;802;-74
2023/11/08 02:45:46;;;;;;;;;;;;;;;20.48;29.42;97917.94;4981524;28;1230;-74
2023/11/08 02:48:12;;;;;;;;;;;;;;;20.50;29.61;97915.44;4997511;28;1124;-74
2023/11/08 02:50:38;;;;;;;;;;;;;;;20.87;29.11;97900.00;4996297;28;1175;-74
2023/11/08 02:53:03;;;;;;;;;;;;;;;20.87;28.82;97893.53;4996132;28;871;-75
2023/11/08 02:55:29;;;;;;;;;;;;;;;20.51;29.55;97894.41;4980249;28;731;-75
2023/11/08 02:57:54;;;;;;;;;;;;;;;20.49;29.42;97885.59;4996067;28;888;-74
2023/11/08 03:00:20;;;;;;;;;;;;;;;21.17;28.74;97890.34;4996541;28;1899;-74
2023/11/08 03:02:46;;;;;;;;;;;;;;;21.31;28.47;97890.00;4980187;28;1119;-74
2023/11/08 03:05:12;;;;;;;;;;;;;;;21.46;28.10;97893.22;4979826;28;1271;-75
2023/11/08 03:07:37;;;;;;;;;;;;;;;20.97;28.78;97900.97;4976363;28;784;-74
2023/11/08 03:10:04;;;;;;;;;;;;;;;20.58;29.34;97899.13;4976508;28;1242;-74
2023/11/08 03:12:30;;;;;;;;;;;;;;;20.69;28.98;97886.31;4960720;28;978;-75
2023/11/08 03:14:55;;;;;;;;;;;;;;;20.83;28.87;97882.34;4960683;28;992;-75
2023/11/08 03:17:21;;;;;;;;;;;;;;;20.59;29.36;97876.06;4976233;28;942;-75
2023/11/08 03:19:46;;;;;;;;;;;;;;;20.72;29.12;97885.41;4976510;28;723;-74
2023/11/08 03:22:13;;;;;;;;;;;;;;;20.44;29.58;97895.38;4960151;28;1994;-74
2023/11/08 03:24:39;;;;;;;;;;;;;;;21.16;28.95;97888.75;4976436;28;822;-75
2023/11/08 03:27:04;;;;;;;;;;;;;;;21.48;28.27;97887.09;4975468;28;869;-74
2023/11/08 03:29:30;;;;;;;;;;;;;;;21.47;28.24;97868.53;4976331;28;862;-74
2023/11/08 03:31:57;;;;;;;;;;;;;;;21.18;28.73;97874.16;4975787;28;987;-74
2023/11/08 03:34:23;;;;;;;;;;;;;;;20.70;29.28;97867.31;4992237;28;885;-74
2023/11/08 03:36:49;;;;;;;;;;;;;;;20.70;29.00;97867.31;4975806;28;842;-75
2023/11/08 03:39:14;;;;;;;;;;;;;;;20.95;28.62;97869.50;4976083;28;1116;-74
2023/11/08 03:41:41;;;;;;;;;;;;;;;20.65;29.16;97860.16;4960051;28;1969;-74
2023/11/08 03:44:06;;;;;;;;;;;;;;;20.81;29.16;97851.66;4976089;28;782;-74
2023/11/08 03:46:32;;;;;;;;;;;;;;;20.62;29.29;97844.06;4976047;28;1056;-74
2023/11/08 03:48:58;;;;;;;;;;;;;;;20.81;29.27;97839.56;4959672;28;823;-75
2023/11/08 03:51:24;;;;;;;;;;;;;;;20.83;29.20;97841.94;4975740;28;791;-74
2023/11/08 03:53:49;;;;;;;;;;;;;;;20.80;29.09;97844.41;4959504;28;919;-74
2023/11/08 03:56:16;;;;;;;;;;;;;;;20.95;29.03;97855.38;4933789;29;1157;-75
2023/11/08 03:58:41;;;;;;;;;;;;;;;20.89;28.79;97859.97;4932798;29;913;-75
2023/11/08 04:01:08;;;;;;;;;;;;;;;20.72;29.29;97854.31;4936978;29;1914;-74
2023/11/08 04:03:34;;;;;;;;;;;;;;;20.74;29.33;97863.16;4937154;29;782;-74
2023/11/08 04:05:59;;;;;;;;;;;;;;;20.71;28.99;97855.56;4936979;29;1185;-74
2023/11/08 04:08:25;;;;;;;;;;;;;;;20.67;29.10;97854.84;4937383;29;792;-74
2023/11/08 04:10:50;;;;;;;;;;;;;;;20.93;28.78;97863.50;4953988;29;1216;-75
2023/11/08 04:13:16;;;;;;;;;;;;;;;21.60;27.86;97860.88;4956344;28;1275;-74
2023/11/08 04:15:41;;;;;;;;;;;;;;;21.53;28.17;97855.41;4956314;29;910;-74
2023/11/08 04:18:07;;;;;;;;;;;;;;;21.43;28.29;97853.69;4940367;29;1199;-74
2023/11/08 04:20:32;;;;;;;;;;;;;;;21.02;29.08;97855.16;4956334;29;1903;-74
2023/11/08 04:22:58;;;;;;;;;;;;;;;20.99;28.77;97851.22;4955973;29;825;-75
2023/11/08 04:25:23;;;;;;;;;;;;;;;20.98;28.90;97848.81;4956162;29;1140;-75
2023/11/08 04:27:49;;;;;;;;;;;;;;;20.37;30.06;97855.19;5000115;28;1278;-74
2023/11/08 04:30:14;;;;;;;;;;;;;;;20.53;29.52;97858.84;5015479;28;822;-74
2023/11/08 04:32:40;;;;;;;;;;;;;;;20.54;29.76;97856.81;4999168;28;1213;-74
2023/11/08 04:35:06;;;;;;;;;;;;;;;20.69;29.32;97860.88;4999009;28;743;-74
2023/11/08 04:37:33;;;;;;;;;;;;;;;20.64;29.63;97857.78;4976967;28;832;-75
2023/11/08 04:39:58;;;;;;;;;;;;;;;20.46;29.90;97852.53;4979198;28;1505;-75
2023/11/08 04:42:25;;;;;;;;;;;;;;;20.39;29.71;97858.34;4963162;28;1911;-75
2023/11/08 04:44:50;;;;;;;;;;;;;;;20.22;30.19;97855.53;4959673;29;1062;-75
2023/11/08 04:47:19;;;;;;;;;;;;;;;20.73;29.50;97853.09;4975993;28;1627;-74
2023/11/08 04:49:47;;;;;;;;;;;;;;;21.32;28.55;97846.28;4975820;28;1169;-75
2023/11/08 04:52:15;;;;;;;;;;;;;;;21.52;27.97;97859.50;4959688;29;1005;-75
2023/11/08 04:54:41;;;;;;;;;;;;;;;21.41;28.32;97864.66;4959722;29;886;-74
2023/11/08 04:57:06;;;;;;;;;;;;;;;20.59;29.54;97856.28;4975792;28;1245;-74
2023/11/08 04:59:35;;;;;;;;;;;;;;;20.39;29.85;97847.06;4959578;29;819;-74
2023/11/08 05:02:00;;;;;;;;;;;;;;;20.53;29.48;97846.75;4959420;29;1987;-75
2023/11/08 05:04:27;;;;;;;;;;;;;;;20.68;29.54;97847.97;4975732;28;1106;-74
2023/11/08 05:06:53;;;;;;;;;;;;;;;20.49;29.79;97851.69;4958923;29;911;-75
2023/11/08 05:09:19;;;;;;;;;;;;;;;20.42;29.93;97846.97;4970306;28;1071;-75
2023/11/08 05:11:45;;;;;;;;;;;;;;;20.55;29.74;97836.56;4959370;29;939;-76
2023/11/08 05:14:11;;;;;;;;;;;;;;;20.61;29.29;97841.69;4960005;28;1950;-76
2023/11/08 05:16:37;;;;;;;;;;;;;;;20.48;29.62;97835.97;4993171;28;917;-75
2023/11/08 05:19:05;;;;;;;;;;;;;;;20.35;29.74;97835.03;4993836;28;1711;-76
2023/11/08 05:21:31;;;;;;;;;;;;;;;20.39;29.59;97828.06;4998182;28;1906;-76
2023/11/08 05:23:56;;;;;;;;;;;;;;;20.42;29.58;97827.19;5015196;28;898;-76
2023/11/08 05:26:22;;;;;;;;;;;;;;;20.34;29.68;97827.81;4998915;28;1107;-75
2023/11/08 05:28:47;;;;;;;;;;;;;;;20.37;29.80;97821.28;5015029;28;1214;-76
2023/11/08 05:31:14;;;;;;;;;;;;;;;20.96;28.89;97837.16;5000043;28;973;-75
2023/11/08 05:33:39;;;;;;;;;;;;;;;21.11;28.90;97835.53;4998498;28;1119;-75
2023/11/08 05:36:05;;;;;;;;;;;;;;;21.37;28.42;97847.00;5014870;28;903;-75
2023/11/08 05:38:31;;;;;;;;;;;;;;;21.29;28.61;97841.47;5005156;28;1867;-75
2023/11/08 05:40:56;;;;;;;;;;;;;;;21.10;28.98;97845.28;4997147;28;1902;-75
2023/11/08 05:43:22;;;;;;;;;;;;;;;20.99;28.72;97839.91;4997518;28;1067;-75
2023/11/08 05:45:47;;;;;;;;;;;;;;;20.58;29.19;97842.59;4997874;28;1098;-75
2023/11/08 05:48:13;;;;;;;;;;;;;;;20.71;29.01;97841.41;4997188;28;1218;-75
2023/11/08 05:50:43;;;;;;;;;;;;;;;20.54;29.40;97803.09;4996733;28;1195;-75
2023/11/08 05:53:08;;;;;;;;;;;;;;;20.86;29.28;97852.38;4981261;28;1897;-75
2023/11/08 05:55:34;;;;;;;;;;;;;;;20.77;29.40;97845.28;4977382;28;1826;-75
2023/11/08 05:57:59;;;;;;;;;;;;;;;20.66;29.46;97833.47;4981137;28;1062;-75
2023/11/08 06:00:25;;;;;;;;;;;;;;;20.43;29.93;97825.94;4995588;28;2088;-76
2023/11/08 06:02:50;;;;;;;;;;;;;;;20.85;29.10;97833.81;4977795;28;2501;-75
2023/11/08 06:05:16;;;;;;;;;;;;;;;21.31;28.58;97829.75;4996472;28;1753;-76
2023/11/08 06:07:44;;;;;;;;;;;;;;;21.31;28.60;97839.03;4978943;28;1860;-74
2023/11/08 06:10:11;;;;;;;;;;;;;;;21.33;28.26;97830.88;4980665;28;1212;-76
2023/11/08 06:12:36;;;;;;;;;;;;;;;21.13;28.64;97837.91;4947608;29;1845;-75
2023/11/08 06:15:05;;;;;;;;;;;;;;;21.11;28.42;97835.53;4950447;28;1194;-75
2023/11/08 06:17:30;;;;;;;;;;;;;;;20.89;28.73;97843.81;4942670;29;909;-75
2023/11/08 06:19:56;;;;;;;;;;;;;;;20.92;28.85;97850.59;4925980;29;2041;-75
2023/11/08 06:22:21;;;;;;;;;;;;;;;20.51;29.75;97847.16;4927617;29;1907;-76
2023/11/08 06:24:47;;;;;;;;;;;;;;;20.86;29.21;97852.38;4930534;29;1728;-75
2023/11/08 06:27:13;;;;;;;;;;;;;;;20.51;29.66;97846.38;4926553;29;1978;-76
2023/11/08 06:29:39;;;;;;;;;;;;;;;20.48;29.84;97850.88;4944109;29;2412;-75
2023/11/08 06:32:06;;;;;;;;;;;;;;;20.64;29.55;97858.56;4944662;29;2068;-75
2023/11/08 06:34:31;;;;;;;;;;;;;;;20.75;28.99;97853.44;4935142;29;1669;-75
2023/11/08 06:36:57;;;;;;;;;;;;;;;20.77;29.18;97862.25;4954286;29;1783;-76
2023/11/08 06:39:23;;;;;;;;;;;;;;;20.71;29.48;97854.75;4926805;29;1706;-76
2023/11/08 06:41:48;;;;;;;;;;;;;;;20.58;29.57;97860.34;4888525;29;1911;-74
2023/11/08 06:44:14;;;;;;;;;;;;;;;20.84;29.15;97854.84;4884734;29;1518;-76
2023/11/08 06:46:39;;;;;;;;;;;;;;;21.62;28.11;97863.28;4853493;29;1693;-75
2023/11/08 06:49:07;;;;;;;;;;;;;;;21.59;28.11;97865.75;4864541;29;1420;-76
2023/11/08 06:51:32;;;;;;;;;;;;;;;21.68;27.76;97856.59;4871490;29;1550;-75
2023/11/08 06:53:58;;;;;;;;;;;;;;;21.17;28.87;97847.91;4877311;29;1098;-75
2023/11/08 06:56:23;;;;;;;;;;;;;;;20.71;29.54;97852.72;4884659;29;968;-75
2023/11/08 06:58:49;;;;;;;;;;;;;;;20.69;29.19;97849.56;4884570;29;1184;-75
2023/11/08 07:01:15;;;;;;;;;;;;;;;20.68;29.56;97859.28;4883653;29;1911;-76
2023/11/08 07:03:41;;;;;;;;;;;;;;;20.55;29.80;97833.75;4900035;29;988;-75
2023/11/08 07:06:06;;;;;;;;;;;;;;;20.66;29.50;97841.94;4899827;29;1184;-75
2023/11/08 07:08:35;;;;;;;;;;;;;;;20.61;29.49;97825.53;4900290;29;1503;-76
2023/11/08 07:11:00;;;;;;;;;;;;;;;20.42;29.98;97823.56;4914476;29;1442;-75
2023/11/08 07:13:26;;;;;;;;;;;;;;;20.56;29.92;97831.72;4919053;29;1148;-76
2023/11/08 07:15:51;;;;;;;;;;;;;;;20.64;29.55;97824.66;4918904;29;966;-76
2023/11/08 07:18:17;;;;;;;;;;;;;;;20.46;29.66;97819.44;4925357;28;1299;-75
2023/11/08 07:20:44;;;;;;;;;;;;;;;20.68;29.37;97813.25;4977954;28;1907;-76
2023/11/08 07:23:10;;;;;;;;;;;;;;;21.08;29.13;97816.59;4977330;28;1025;-76
2023/11/08 07:25:36;;;;;;;;;;;;;;;21.54;28.60;97812.50;4977222;28;944;-75
2023/11/08 07:28:03;;;;;;;;;;;;;;;21.55;28.46;97810.47;4977501;28;1447;-75
2023/11/08 07:30:28;;;;;;;;;;;;;;;21.59;28.30;97797.00;4976089;28;1037;-76
2023/11/08 07:32:54;;;;;;;;;;;;;;;21.44;28.74;97801.50;4975789;28;1098;-75
2023/11/08 07:35:20;;;;;;;;;;;;;;;21.16;28.95;97781.22;4976027;28;1237;-75
2023/11/08 07:37:46;;;;;;;;;;;;;;;20.95;29.18;97776.19;4974556;28;1840;-75
2023/11/08 07:40:12;;;;;;;;;;;;;;;20.71;29.60;97786.91;4972798;28;1406;-76
2023/11/08 07:42:38;;;;;;;;;;;;;;;21.00;29.28;97795.44;4969713;28;1907;-75
2023/11/08 07:45:04;;;;;;;;;;;;;;;21.04;29.19;97807.44;4976268;28;1045;-76
2023/11/08 07:47:30;;;;;;;;;;;;;;;20.36;30.39;97814.81;4975955;28;1221;-75
2023/11/08 07:49:55;;;;;;;;;;;;;;;20.56;30.09;97817.56;4975902;28;1002;-76
2023/11/08 07:52:21;;;;;;;;;;;;;;;20.49;30.37;97820.59;4978429;28;1970;-75
2023/11/08 07:54:47;;;;;;;;;;;;;;;20.79;29.77;97825.88;4942851;29;1193;-75
2023/11/08 07:57:13;;;;;;;;;;;;;;;20.35;30.30;97801.13;4972265;28;1072;-75
2023/11/08 07:59:38;;;;;;;;;;;;;;;20.54;29.92;97797.44;4956152;28;1139;-75
2023/11/08 08:02:04;;;;;;;;;;;;;;;20.50;30.16;97791.09;4956350;29;1981;-75
2023/11/08 08:04:29;;;;;;;;;;;;;;;20.59;29.70;97788.44;4972133;28;1053;-76
2023/11/08 08:06:55;;;;;;;;;;;;;;;20.65;29.83;97786.66;4958049;28;1008;-75
2023/11/08 08:09:21;;;;;;;;;;;;;;;20.63;29.66;97791.97;4959519;28;1723;-76
2023/11/08 08:11:47;;;;;;;;;;;;;;;20.80;29.54;97782.22;4959160;28;975;-75
2023/11/08 08:14:12;;;;;;;;;;;;;;;20.61;29.80;97773.84;4975915;28;986;-75
2023/11/08 08:16:40;;;;;;;;;;;;;;;20.57;29.96;97781.63;4975568;28;1008;-75
2023/11/08 08:19:06;;;;;;;;;;;;;;;20.91;29.19;97778.31;4975117;28;1031;-75
2023/11/08 08:21:32;;;;;;;;;;;;;;;20.64;29.34;97785.06;4975331;28;1973;-75
2023/11/08 08:23:59;;;;;;;;;;;;;;;20.61;29.45;97777.47;4975182;28;1486;-76
2023/11/08 08:26:25;;;;;;;;;;;;;;;20.67;29.36;97783.38;4974828;28;1006;-75
2023/11/08 08:28:50;;;;;;;;;;;;;;;20.40;29.80;97792.13;4975237;28;1139;-75
2023/11/08 08:31:17;;;;;;;;;;;;;;;21.19;28.88;97786.00;4977697;28;1049;-75
2023/11/08 08:33:42;;;;;;;;;;;;;;;21.65;28.49;97792.34;4979246;28;942;-75
2023/11/08 08:36:08;;;;;;;;;;;;;;;21.73;28.54;97796.56;4997047;28;912;-75
2023/11/08 08:38:33;;;;;;;;;;;;;;;21.52;28.90;97802.88;4996300;28;875;-76
2023/11/08 08:40:59;;;;;;;;;;;;;;;21.53;29.05;97795.97;4996812;28;1997;-75
2023/11/08 08:43:24;;;;;;;;;;;;;;;21.41;28.99;97791.09;4994574;28;1770;-75
2023/11/08 08:45:50;;;;;;;;;;;;;;;21.19;29.47;97811.47;4975902;28;1643;-75
2023/11/08 08:48:16;;;;;;;;;;;;;;;21.10;29.26;97802.84;5001099;28;956;-75
2023/11/08 08:50:42;;;;;;;;;;;;;;;20.60;30.12;97795.66;4995396;28;1184;-75
2023/11/08 08:53:08;;;;;;;;;;;;;;;20.65;30.16;97786.66;4977724;28;1693;-75
2023/11/08 08:55:36;;;;;;;;;;;;;;;20.87;29.88;97786.88;4995559;28;1856;-75
2023/11/08 08:58:02;;;;;;;;;;;;;;;20.86;30.11;97785.28;4974941;28;1324;-75
2023/11/08 09:00:28;;;;;;;;;;;;;;;20.76;30.06;97786.38;4994154;28;1715;-75
2023/11/08 09:02:54;;;;;;;;;;;;;;;20.88;29.87;97790.50;4981990;28;1973;-76
2023/11/08 09:05:20;;;;;;;;;;;;;;;20.71;29.83;97779.22;4984708;28;1752;-76
2023/11/08 09:07:46;;;;;;;;;;;;;;;20.97;29.48;97779.34;4984208;28;1839;-75
2023/11/08 09:10:12;;;;;;;;;;;;;;;20.85;29.84;97777.25;5007324;28;1060;-75
2023/11/08 09:12:37;;;;;;;;;;;;;;;20.81;29.92;97771.69;5031340;28;996;-75
2023/11/08 09:15:06;;;;;;;;;;;;;;;20.75;30.00;97762.16;5014879;28;1116;-75
2023/11/08 09:17:31;;;;;;;;;;;;;;;20.95;29.49;97771.31;4997456;28;2081;-75
2023/11/08 09:19:57;;;;;;;;;;;;;;;21.39;29.23;97766.03;5307106;22;3453;-72
2023/11/08 09:22:23;;;;;;;;;;;;;;;22.12;29.32;97754.91;5018585;28;1910;-72
2023/11/08 09:24:48;;;;;;;;;;;;;;;22.03;29.90;97751.97;5001149;28;1807;-72
2023/11/08 09:27:13;;;;;;;;;;;;;;;21.50;30.60;97748.72;5014555;28;1740;-72
2023/11/08 09:29:39;;;;;;;;;;;;;;;21.12;30.97;97749.41;5025518;28;1971;-74
2023/11/08 09:32:05;;;;;;;;;;;;;;;21.12;31.14;97735.28;5006248;28;977;-74
2023/11/08 09:34:34;;;;;;;;;;;;;;;20.92;31.56;97743.13;5002143;28;1171;-74
2023/11/08 09:37:00;;;;;;;;;;;;;;;20.99;31.13;97748.59;5001035;28;1132;-74
2023/11/08 09:39:29;;;;;;;;;;;;;;;21.23;30.67;97747.06;5001251;28;1020;-75
2023/11/08 09:41:57;;;;;;;;;;;;;;;21.03;30.53;97744.41;5007646;28;2049;-75
2023/11/08 09:44:26;;;;;;;;;;;;;;;20.64;31.26;97734.19;5017368;28;1476;-75
2023/11/08 09:46:53;;;;;;;;;;;;;;;20.62;31.37;97735.84;5004138;28;994;-75
2023/11/08 09:49:20;;;;;;;;;;;;;;;20.59;31.02;97737.56;5020162;28;1083;-75
2023/11/08 09:51:45;;;;;;;;;;;;;;;20.65;30.95;97741.41;5031380;28;1827;-75
2023/11/08 09:54:12;;;;;;;;;;;;;;;20.69;30.81;97728.00;5016686;28;1831;-74
2023/11/08 09:56:37;;;;;;;;;;;;;;;20.61;30.77;97729.41;5010713;28;2061;-73
2023/11/08 09:59:03;;;;;;;;;;;;;;;20.69;30.37;97725.16;5011817;28;1771;-72
2023/11/08 10:01:30;;;;;;;;;;;;;;;20.74;30.01;97727.44;5006870;28;1980;-74
2023/11/08 10:03:55;;;;;;;;;;;;;;;20.78;30.06;97722.50;5034455;28;1461;-74
2023/11/08 10:06:22;;;;;;;;;;;;;;;21.14;29.30;97723.50;5019040;28;1980;-74
2023/11/08 10:08:48;;;;;;;;;;;;;;;21.05;29.48;97724.16;5017899;28;1895;-74
2023/11/08 10:11:14;;;;;;;;;;;;;;;20.66;30.15;97711.91;5020747;28;881;-74
2023/11/08 10:13:48;;;;;;;;;;;;;;;20.89;29.76;97722.19;5038640;28;947;-74
2023/11/08 10:16:17;;;;;;;;;;;;;;;21.47;30.00;97710.81;5176842;22;3755;-74
2023/11/08 10:18:42;;;;;;;;;;;;;;;22.03;30.86;97706.63;5037645;28;923;-73
2023/11/08 10:21:17;;;;;;;;;;;;;;;21.68;31.73;97712.19;5037318;28;1965;-74
2023/11/08 10:23:43;;;;;;;;;;;;;;;21.61;31.56;97715.25;5037070;28;952;-73
2023/11/08 10:26:27;;;;;;;;;;;;;;;21.44;31.67;97711.69;5037308;28;887;-74
2023/11/08 10:28:53;;;;;;;;;;;;;;;21.19;31.60;97712.44;5037294;28;944;-74
2023/11/08 10:31:28;;;;;;;;;;;;;;;20.71;32.31;97705.72;5057780;28;1706;-75
2023/11/08 10:33:57;;;;;;;;;;;;;;;20.95;31.57;97700.59;5035098;28;996;-74
2023/11/08 10:36:26;;;;;;;;;;;;;;;21.05;31.46;97695.88;5036590;28;966;-74
2023/11/08 10:38:51;;;;;;;;;;;;;;;20.79;31.59;97686.53;5037108;28;1178;-74
2023/11/08 10:41:17;;;;;;;;;;;;;;;21.02;31.06;97691.91;5036648;28;1909;-74
2023/11/08 10:43:46;;;;;;;;;;;;;;;21.11;30.53;97693.28;5020501;28;1125;-74
2023/11/08 10:46:11;;;;;;;;;;;;;;;21.13;30.52;97702.91;5037792;28;877;-74
2023/11/08 10:48:37;;;;;;;;;;;;;;;21.25;30.15;97688.00;5037675;28;928;-74
2023/11/08 10:51:06;;;;;;;;;;;;;;;21.03;30.03;97692.69;5021021;28;1139;-73
2023/11/08 10:53:32;;;;;;;;;;;;;;;21.19;29.88;97678.50;5037751;28;907;-74
2023/11/08 10:55:59;;;;;;;;;;;;;;;20.90;30.24;97672.09;5055740;28;907;-74
2023/11/08 10:58:26;;;;;;;;;;;;;;;20.95;29.86;97685.66;5055288;28;1051;-74
2023/11/08 11:00:51;;;;;;;;;;;;;;;20.79;30.00;97689.34;5055540;28;1917;-74
2023/11/08 11:03:17;;;;;;;;;;;;;;;20.61;30.53;97694.69;5055277;28;1100;-74
2023/11/08 11:05:45;;;;;;;;;;;;;;;21.08;29.80;97694.97;5055508;28;972;-74
2023/11/08 11:08:13;;;;;;;;;;;;;;;21.36;29.24;97686.91;5055609;28;987;-75
2023/11/08 11:10:39;;;;;;;;;;;;;;;20.69;29.87;97671.44;5015490;28;1262;-75
2023/11/08 11:13:04;;;;;;;;;;;;;;;20.91;29.87;97679.31;4999083;28;1119;-74
2023/11/08 11:15:32;;;;;;;;;;;;;;;21.01;29.29;97681.84;5015042;28;1093;-73
2023/11/08 11:17:58;;;;;;;;;;;;;;;20.51;30.19;97679.63;5015641;28;1095;-74
2023/11/08 11:20:23;;;;;;;;;;;;;;;20.67;30.17;97671.09;5014361;28;1835;-74
2023/11/08 11:22:49;;;;;;;;;;;;;;;20.83;29.82;97663.78;4980725;28;2265;-74
2023/11/08 11:25:33;;;;;;;;;;;;;;;20.92;29.34;97659.06;4995295;28;1143;-75
2023/11/08 11:27:59;;;;;;;;;;;;;;;20.90;29.33;97658.72;4977328;28;945;-74
2023/11/08 11:30:27;;;;;;;;;;;;;;;20.88;29.64;97663.22;4959881;28;1005;-74
2023/11/08 11:32:53;;;;;;;;;;;;;;;21.44;29.52;97659.97;4960574;28;1092;-74
2023/11/08 11:35:19;;;;;;;;;;;;;;;21.47;30.35;97670.41;4976003;28;969;-74
2023/11/08 11:38:18;;;;;;;;;;;;;;;21.67;30.53;97673.78;4959856;28;983;-75
2023/11/08 11:40:48;;;;;;;;;;;;;;;21.65;31.09;97676.28;4937067;29;1888;-74
2023/11/08 11:43:32;;;;;;;;;;;;;;;21.45;31.07;97689.84;4937264;29;1072;-74
2023/11/08 11:46:03;;;;;;;;;;;;;;;21.31;30.91;97691.88;4937341;29;1019;-74
2023/11/08 11:48:32;;;;;;;;;;;;;;;21.19;30.81;97695.47;4953269;28;993;-74
2023/11/08 11:50:58;;;;;;;;;;;;;;;21.24;30.57;97703.41;4959660;28;1251;-74
2023/11/08 11:53:27;;;;;;;;;;;;;;;21.27;30.40;97696.81;4976002;28;948;-74
2023/11/08 11:56:08;;;;;;;;;;;;;;;21.00;30.92;97696.44;4985825;28;923;-73
2023/11/08 11:58:35;;;;;;;;;;;;;;;21.15;30.10;97691.94;4997659;28;1925;-75
2023/11/08 12:01:01;;;;;;;;;;;;;;;21.12;30.37;97690.00;4998111;28;1979;-74
2023/11/08 12:03:26;;;;;;;;;;;;;;;20.93;30.53;97686.09;4998183;28;1021;-73
2023/11/08 12:05:57;;;;;;;;;;;;;;;20.87;30.18;97673.75;4998328;28;937;-74
2023/11/08 12:08:23;;;;;;;;;;;;;;;20.90;30.16;97677.75;4975486;28;976;-74
2023/11/08 12:10:49;;;;;;;;;;;;;;;20.71;30.28;97668.94;4975325;28;1171;-74
2023/11/08 12:13:14;;;;;;;;;;;;;;;20.76;30.49;97662.75;4975352;28;967;-74
2023/11/08 12:15:40;;;;;;;;;;;;;;;20.55;30.62;97657.72;4979857;28;1211;-74
2023/11/08 12:18:08;;;;;;;;;;;;;;;20.81;30.31;97665.03;5011073;28;1206;-74
2023/11/08 12:20:40;;;;;;;;;;;;;;;20.69;30.11;97662.97;5015625;28;1942;-74
2023/11/08 12:23:06;;;;;;;;;;;;;;;20.80;29.79;97673.97;5014228;28;970;-74
2023/11/08 12:25:32;;;;;;;;;;;;;;;20.87;29.96;97678.63;5014101;28;1154;-74
2023/11/08 12:27:59;;;;;;;;;;;;;;;20.31;30.61;97688.19;5014443;28;986;-74
2023/11/08 12:30:26;;;;;;;;;;;;;;;20.88;29.79;97705.66;4997916;28;1063;-74
2023/11/08 12:32:51;;;;;;;;;;;;;;;21.03;29.50;97698.34;5030747;28;1089;-75
2023/11/08 12:35:19;;;;;;;;;;;;;;;20.82;29.55;97702.59;5014441;28;1236;-74
2023/11/08 12:37:45;;;;;;;;;;;;;;;20.73;29.88;97697.59;5029095;28;1883;-75
2023/11/08 12:40:21;;;;;;;;;;;;;;;21.30;29.83;97707.28;5013771;28;1266;-74
2023/11/08 12:42:46;;;;;;;;;;;;;;;21.69;30.06;97691.13;5017625;28;1972;-75
2023/11/08 12:45:27;;;;;;;;;;;;;;;21.64;30.46;97686.00;5024316;28;1396;-75
2023/11/08 12:48:02;;;;;;;;;;;;;;;21.42;30.83;97690.78;5045142;28;1852;-75
2023/11/08 12:50:27;;;;;;;;;;;;;;;21.12;31.18;97678.69;5023513;28;1291;-75
2023/11/08 12:52:53;;;;;;;;;;;;;;;20.98;30.86;97656.47;5017345;28;1009;-75
2023/11/08 12:55:18;;;;;;;;;;;;;;;21.03;30.66;97602.19;5021715;28;2404;-75